Pagina principale
METAR-TAF:

METAR-TAF

Aeroporti :

Aeroporto Internazionale di Baghdad

Baghdad, Iraq

latitudine: 33-15-45N, longitudine: 44-14-04E, altezza: 35 m

Osservazione

Il bollettino è stato emesso 48 minuti fa, alle 18:00 UTC
Vento calmo
Temperature 12°C
Umidità 50%
Pressione 1020 hPa
Visibilità: 9000 m

METAR: ORBI 211800Z 00000KT 9000 NSC 12/02 Q1020 NOSIG

Ora: 21:48 (18:48 UTC)

Previsione

Il bollettino è stato emesso 2 ore e 48 minuti fa, alle 16:00 UTC
Previsione valida dal 21 alle 18 UTC al 22 alle 18 UTC
Vento 10 kt da ovest/nord-ovest
Visibilità: 8000 m

TAF: ORBI 211600Z 2118/2218 30010KT 8000 NSC

Osservazioni e previsioni meteorologiche di più di 4000 aeroporti (messaggi METAR e TAF).

Le stazioni disponibili sono rappresentate dai dischi gialli e rossi sulla carta.

Puntare il mouse per vedere il nome della stazione.

Clicca sopra per visualizzare le osservazioni e previsioni meteorologiche.

Per cambiare la mappa : fare clic sui pulsanti verdi con una croce nera per ingrandire, il pulsante verde con un trattino per diminuire, o sulla freccia verde per le mappe adiacenti.


METAR-TAF: